Terminal Aerodrome Forecast
Issued by NWS

Home | Current Version | Previous Version | Graphics & Text | Print | Product List | Glossary On
Versions: 1 2 3 4 5 6 7 8 9 10 11 12
000
FTUS42 KMHX 272323
TAFOAJ
TAF
KOAJ 272323Z 2800/2824 08003KT P6SM SCT050
     FM280800 00000KT 3SM BR SCT020
     FM281200 11008KT P6SM SCT050
      AMD LTD TO CLD VIS AND WIND=

USA.gov is the U.S. government's official web portal to all federal, state and local government web resources and services.